createdAt,value
2022-10-05T00:00:12.000Z,10.98
2022-10-05T00:01:12.000Z,10.98
2022-10-05T00:02:12.000Z,10.98
2022-10-05T00:03:12.000Z,11.01
2022-10-05T00:04:12.000Z,10.94
2022-10-05T00:05:12.000Z,10.96
2022-10-05T00:06:12.000Z,10.95
2022-10-05T00:07:12.000Z,10.94
2022-10-05T00:08:12.000Z,10.94
2022-10-05T00:09:12.000Z,10.92
2022-10-05T00:10:12.000Z,10.91
2022-10-05T00:11:12.000Z,10.91
2022-10-05T00:12:12.000Z,10.91
2022-10-05T00:13:12.000Z,10.91
2022-10-05T00:14:12.000Z,10.92
2022-10-05T00:15:12.000Z,10.89
2022-10-05T00:16:12.000Z,10.86
2022-10-05T00:17:12.000Z,10.89
2022-10-05T00:18:12.000Z,10.92
2022-10-05T00:19:12.000Z,10.92
2022-10-05T00:20:13.000Z,10.91
2022-10-05T00:21:13.000Z,10.95
2022-10-05T00:22:13.000Z,10.92
2022-10-05T00:23:13.000Z,10.92
2022-10-05T00:24:13.000Z,10.98
2022-10-05T00:25:13.000Z,10.95
2022-10-05T00:26:13.000Z,10.95
2022-10-05T00:27:13.000Z,10.94
2022-10-05T00:28:13.000Z,10.96
2022-10-05T00:29:13.000Z,10.92
2022-10-05T00:30:13.000Z,10.92
2022-10-05T00:31:13.000Z,10.94
2022-10-05T00:32:13.000Z,10.94
2022-10-05T00:33:13.000Z,10.89
2022-10-05T00:34:13.000Z,10.94
2022-10-05T00:35:13.000Z,10.88
2022-10-05T00:36:13.000Z,10.88
2022-10-05T00:37:13.000Z,10.89
2022-10-05T00:38:13.000Z,10.89
2022-10-05T00:39:13.000Z,10.86
2022-10-05T00:40:13.000Z,10.84
2022-10-05T00:41:13.000Z,10.84
2022-10-05T00:42:13.000Z,10.84
2022-10-05T00:43:13.000Z,10.81
2022-10-05T00:44:13.000Z,10.83
2022-10-05T00:45:13.000Z,10.81
2022-10-05T00:46:13.000Z,10.78
2022-10-05T00:47:13.000Z,10.80
2022-10-05T00:48:13.000Z,10.74
2022-10-05T00:49:13.000Z,10.77
2022-10-05T00:50:13.000Z,10.76
2022-10-05T00:51:13.000Z,10.73
2022-10-05T00:52:13.000Z,10.76
2022-10-05T00:53:13.000Z,10.74
2022-10-05T00:54:13.000Z,10.74
2022-10-05T00:55:13.000Z,10.73
2022-10-05T00:56:13.000Z,10.71
2022-10-05T00:57:13.000Z,10.73
2022-10-05T00:58:13.000Z,10.74
2022-10-05T00:59:13.000Z,10.70
2022-10-05T01:00:14.000Z,10.71
2022-10-05T01:01:14.000Z,10.73
2022-10-05T01:02:14.000Z,10.70
2022-10-05T01:03:14.000Z,10.74
2022-10-05T01:04:14.000Z,10.73
2022-10-05T01:05:14.000Z,10.73
2022-10-05T01:06:14.000Z,10.70
2022-10-05T01:07:14.000Z,10.70
2022-10-05T01:08:14.000Z,10.68
2022-10-05T01:09:14.000Z,10.74
2022-10-05T01:10:14.000Z,10.68
2022-10-05T01:11:14.000Z,10.66
2022-10-05T01:12:14.000Z,10.66
2022-10-05T01:13:14.000Z,10.65
2022-10-05T01:14:14.000Z,10.63
2022-10-05T01:15:14.000Z,10.65
2022-10-05T01:16:14.000Z,10.62
2022-10-05T01:17:14.000Z,10.66
2022-10-05T01:18:14.000Z,10.59
2022-10-05T01:19:14.000Z,10.65
2022-10-05T01:20:14.000Z,10.62
2022-10-05T01:21:14.000Z,10.63
2022-10-05T01:22:14.000Z,10.56
2022-10-05T01:23:14.000Z,10.62
2022-10-05T01:24:14.000Z,10.56
2022-10-05T01:25:14.000Z,10.59
2022-10-05T01:26:14.000Z,10.56
2022-10-05T01:27:14.000Z,10.58
2022-10-05T01:28:14.000Z,10.53
2022-10-05T01:29:14.000Z,10.53
2022-10-05T01:30:14.000Z,10.56
2022-10-05T01:31:14.000Z,10.53
2022-10-05T01:32:14.000Z,10.53
2022-10-05T01:33:14.000Z,10.52
2022-10-05T01:34:14.000Z,10.53
2022-10-05T01:35:14.000Z,10.47
2022-10-05T01:36:14.000Z,10.51
2022-10-05T01:37:14.000Z,10.47
2022-10-05T01:38:14.000Z,10.44
2022-10-05T01:39:15.000Z,10.46
2022-10-05T01:40:15.000Z,10.46
2022-10-05T01:41:15.000Z,10.42
2022-10-05T01:42:15.000Z,10.44
2022-10-05T01:43:15.000Z,10.40
2022-10-05T01:44:15.000Z,10.44
2022-10-05T01:45:15.000Z,10.42
2022-10-05T01:46:15.000Z,10.39
2022-10-05T01:47:15.000Z,10.39
2022-10-05T01:48:15.000Z,10.42
2022-10-05T01:49:15.000Z,10.43
2022-10-05T01:50:15.000Z,10.43
2022-10-05T01:51:15.000Z,10.44
2022-10-05T01:52:15.000Z,10.44
2022-10-05T01:53:15.000Z,10.43
2022-10-05T01:54:15.000Z,10.47
2022-10-05T01:55:15.000Z,10.47
2022-10-05T01:56:15.000Z,10.52
2022-10-05T01:57:15.000Z,10.46
2022-10-05T01:58:15.000Z,10.47
2022-10-05T01:59:15.000Z,10.47
2022-10-05T02:00:15.000Z,10.55
2022-10-05T02:01:15.000Z,10.55
2022-10-05T02:02:15.000Z,10.51
2022-10-05T02:03:15.000Z,10.51
2022-10-05T02:04:15.000Z,10.52
2022-10-05T02:05:15.000Z,10.46
2022-10-05T02:06:15.000Z,10.44
2022-10-05T02:07:15.000Z,10.43
2022-10-05T02:08:15.000Z,10.42
2022-10-05T02:09:15.000Z,10.39
2022-10-05T02:10:15.000Z,10.39
2022-10-05T02:11:15.000Z,10.42
2022-10-05T02:12:15.000Z,10.44
2022-10-05T02:13:15.000Z,10.43
2022-10-05T02:14:15.000Z,10.40
2022-10-05T02:15:16.000Z,10.37
2022-10-05T02:16:16.000Z,10.33
2022-10-05T02:17:16.000Z,10.28
2022-10-05T02:18:16.000Z,10.25
2022-10-05T02:19:16.000Z,10.18
2022-10-05T02:20:16.000Z,10.18
2022-10-05T02:21:16.000Z,10.10
2022-10-05T02:22:16.000Z,10.09
2022-10-05T02:23:16.000Z,10.07
2022-10-05T02:24:16.000Z,10.03
2022-10-05T02:25:16.000Z,9.99
2022-10-05T02:26:16.000Z,9.97
2022-10-05T02:27:16.000Z,9.96
2022-10-05T02:28:16.000Z,9.88
2022-10-05T02:29:16.000Z,9.89
2022-10-05T02:30:16.000Z,9.85
2022-10-05T02:31:16.000Z,9.85
2022-10-05T02:32:16.000Z,9.83
2022-10-05T02:33:16.000Z,9.83
2022-10-05T02:34:16.000Z,9.85
2022-10-05T02:35:16.000Z,9.85
2022-10-05T02:36:16.000Z,9.85
2022-10-05T02:37:16.000Z,9.83
2022-10-05T02:38:16.000Z,9.81
2022-10-05T02:39:16.000Z,9.76
2022-10-05T02:40:16.000Z,9.73
2022-10-05T02:41:16.000Z,9.75
2022-10-05T02:42:16.000Z,9.68
2022-10-05T02:43:16.000Z,9.70
2022-10-05T02:44:16.000Z,9.64
2022-10-05T02:45:16.000Z,9.67
2022-10-05T02:46:16.000Z,9.63
2022-10-05T02:47:16.000Z,9.58
2022-10-05T02:48:16.000Z,9.57
2022-10-05T02:49:17.000Z,9.56
2022-10-05T02:50:17.000Z,9.50
2022-10-05T02:51:17.000Z,9.46
2022-10-05T02:52:17.000Z,9.46
2022-10-05T02:53:17.000Z,9.45
2022-10-05T02:54:17.000Z,9.42
2022-10-05T02:55:17.000Z,9.38
2022-10-05T02:56:17.000Z,9.35
2022-10-05T02:57:17.000Z,9.32
2022-10-05T02:58:17.000Z,9.32
2022-10-05T02:59:17.000Z,9.27
2022-10-05T03:00:17.000Z,9.27
2022-10-05T03:01:17.000Z,9.28
2022-10-05T03:02:17.000Z,9.23
2022-10-05T03:03:17.000Z,9.18
2022-10-05T03:04:17.000Z,9.20
2022-10-05T03:05:17.000Z,9.16
2022-10-05T03:06:17.000Z,9.16
2022-10-05T03:07:17.000Z,9.15
2022-10-05T03:08:17.000Z,9.13
2022-10-05T03:09:17.000Z,9.13
2022-10-05T03:10:17.000Z,9.13
2022-10-05T03:11:17.000Z,9.15
2022-10-05T03:12:17.000Z,9.12
2022-10-05T03:13:17.000Z,9.05
2022-10-05T03:14:17.000Z,9.06
2022-10-05T03:15:17.000Z,9.04
2022-10-05T03:16:17.000Z,9.04
2022-10-05T03:17:17.000Z,8.97
2022-10-05T03:18:17.000Z,9.04
2022-10-05T03:19:17.000Z,8.96
2022-10-05T03:20:17.000Z,8.96
2022-10-05T03:21:17.000Z,8.96
2022-10-05T03:22:18.000Z,8.96
2022-10-05T03:23:18.000Z,8.94
2022-10-05T03:24:18.000Z,8.90
2022-10-05T03:25:18.000Z,8.96
2022-10-05T03:26:18.000Z,8.93
2022-10-05T03:27:18.000Z,8.90
2022-10-05T03:28:18.000Z,8.93
2022-10-05T03:29:18.000Z,8.88
2022-10-05T03:30:18.000Z,8.87
2022-10-05T03:31:18.000Z,8.88
2022-10-05T03:32:18.000Z,8.87
2022-10-05T03:33:18.000Z,8.84
2022-10-05T03:34:18.000Z,8.83
2022-10-05T03:35:18.000Z,8.81
2022-10-05T03:36:18.000Z,8.83
2022-10-05T03:37:18.000Z,8.84
2022-10-05T03:38:18.000Z,8.79
2022-10-05T03:39:18.000Z,8.79
2022-10-05T03:40:18.000Z,8.75
2022-10-05T03:41:18.000Z,8.73
2022-10-05T03:42:18.000Z,8.75
2022-10-05T03:43:18.000Z,8.71
2022-10-05T03:44:18.000Z,8.69
2022-10-05T03:45:18.000Z,8.71
2022-10-05T03:46:18.000Z,8.69
2022-10-05T03:47:18.000Z,8.72
2022-10-05T03:48:18.000Z,8.71
2022-10-05T03:49:18.000Z,8.71
2022-10-05T03:50:18.000Z,8.72
2022-10-05T03:51:19.000Z,8.71
2022-10-05T03:52:19.000Z,8.73
2022-10-05T03:53:19.000Z,8.69
2022-10-05T03:54:19.000Z,8.69
2022-10-05T03:55:19.000Z,8.72
2022-10-05T03:56:19.000Z,8.71
2022-10-05T03:57:19.000Z,8.69
2022-10-05T03:58:19.000Z,8.69
2022-10-05T03:59:19.000Z,8.69
2022-10-05T04:00:19.000Z,8.69
2022-10-05T04:01:19.000Z,8.75
2022-10-05T04:02:19.000Z,8.71
2022-10-05T04:03:19.000Z,8.73
2022-10-05T04:04:19.000Z,8.68
2022-10-05T04:05:19.000Z,8.71
2022-10-05T04:06:19.000Z,8.69
2022-10-05T04:07:19.000Z,8.68
2022-10-05T04:08:19.000Z,8.68
2022-10-05T04:09:19.000Z,8.71
2022-10-05T04:10:19.000Z,8.69
2022-10-05T04:11:19.000Z,8.71
2022-10-05T04:12:19.000Z,8.71
2022-10-05T04:13:19.000Z,8.69
2022-10-05T04:14:19.000Z,8.71
2022-10-05T04:15:19.000Z,8.72
2022-10-05T04:16:20.000Z,8.72
2022-10-05T04:17:20.000Z,8.69
2022-10-05T04:18:20.000Z,8.71
2022-10-05T04:19:20.000Z,8.69
2022-10-05T04:20:20.000Z,8.71
2022-10-05T04:21:20.000Z,8.69
2022-10-05T04:22:20.000Z,8.69
2022-10-05T04:23:20.000Z,8.71
2022-10-05T04:24:20.000Z,8.71
2022-10-05T04:25:20.000Z,8.73
2022-10-05T04:26:20.000Z,8.73
2022-10-05T04:27:20.000Z,8.76
2022-10-05T04:28:20.000Z,8.72
2022-10-05T04:29:20.000Z,8.76
2022-10-05T04:30:20.000Z,8.76
2022-10-05T04:31:20.000Z,8.75
2022-10-05T04:32:20.000Z,8.76
2022-10-05T04:33:20.000Z,8.73
2022-10-05T04:34:20.000Z,8.76
2022-10-05T04:35:20.000Z,8.83
2022-10-05T04:36:20.000Z,8.79
2022-10-05T04:37:20.000Z,8.78
2022-10-05T04:38:20.000Z,8.76
2022-10-05T04:39:20.000Z,8.76
2022-10-05T04:40:20.000Z,8.75
2022-10-05T04:41:21.000Z,8.73
2022-10-05T04:42:21.000Z,8.75
2022-10-05T04:43:21.000Z,8.75
2022-10-05T04:44:21.000Z,8.73
2022-10-05T04:45:21.000Z,8.76
2022-10-05T04:46:21.000Z,8.75
2022-10-05T04:47:21.000Z,8.73
2022-10-05T04:48:21.000Z,8.75
2022-10-05T04:49:21.000Z,8.73
2022-10-05T04:50:21.000Z,8.71
2022-10-05T04:51:21.000Z,8.71
2022-10-05T04:52:21.000Z,8.76
2022-10-05T04:53:21.000Z,8.73
2022-10-05T04:54:21.000Z,8.72
2022-10-05T04:55:21.000Z,8.71
2022-10-05T04:56:21.000Z,8.69
2022-10-05T04:57:21.000Z,8.69
2022-10-05T04:58:21.000Z,8.72
2022-10-05T04:59:21.000Z,8.71
2022-10-05T05:00:21.000Z,8.72
2022-10-05T05:01:21.000Z,8.68
2022-10-05T05:02:21.000Z,8.72
2022-10-05T05:03:21.000Z,8.73
2022-10-05T05:04:21.000Z,8.72
2022-10-05T05:05:21.000Z,8.69
2022-10-05T05:06:22.000Z,8.72
2022-10-05T05:07:22.000Z,8.68
2022-10-05T05:08:22.000Z,8.71
2022-10-05T05:09:22.000Z,8.69
2022-10-05T05:10:22.000Z,8.72
2022-10-05T05:11:22.000Z,8.72
2022-10-05T05:12:22.000Z,8.73
2022-10-05T05:13:22.000Z,8.72
2022-10-05T05:14:22.000Z,8.75
2022-10-05T05:15:22.000Z,8.76
2022-10-05T05:16:22.000Z,8.72
2022-10-05T05:17:22.000Z,8.73
2022-10-05T05:18:22.000Z,8.79
2022-10-05T05:19:22.000Z,8.87
2022-10-05T05:20:22.000Z,8.88
2022-10-05T05:21:22.000Z,8.96
2022-10-05T05:22:22.000Z,8.94
2022-10-05T05:23:22.000Z,8.94
2022-10-05T05:24:22.000Z,8.97
2022-10-05T05:25:22.000Z,9.02
2022-10-05T05:26:22.000Z,9.02
2022-10-05T05:27:22.000Z,9.04
2022-10-05T05:28:22.000Z,9.09
2022-10-05T05:29:22.000Z,9.09
2022-10-05T05:30:23.000Z,9.16
2022-10-05T05:31:23.000Z,9.15
2022-10-05T05:32:23.000Z,9.12
2022-10-05T05:33:23.000Z,9.18
2022-10-05T05:34:23.000Z,9.21
2022-10-05T05:35:23.000Z,9.30
2022-10-05T05:36:23.000Z,9.32
2022-10-05T05:37:23.000Z,9.40
2022-10-05T05:38:23.000Z,9.38
2022-10-05T05:39:23.000Z,9.39
2022-10-05T05:40:23.000Z,9.34
2022-10-05T05:41:23.000Z,9.45
2022-10-05T05:42:23.000Z,9.42
2022-10-05T05:43:23.000Z,9.52
2022-10-05T05:44:23.000Z,9.58
2022-10-05T05:45:23.000Z,9.66
2022-10-05T05:46:23.000Z,9.68
2022-10-05T05:47:23.000Z,9.76
2022-10-05T05:48:23.000Z,9.78
2022-10-05T05:49:23.000Z,9.79
2022-10-05T05:50:23.000Z,9.83
2022-10-05T05:51:23.000Z,9.89
2022-10-05T05:52:23.000Z,9.91
2022-10-05T05:53:23.000Z,9.94
2022-10-05T05:54:23.000Z,10.00
2022-10-05T05:55:24.000Z,10.01
2022-10-05T05:56:24.000Z,10.00
2022-10-05T05:57:24.000Z,10.03
2022-10-05T05:58:24.000Z,10.07
2022-10-05T05:59:24.000Z,10.06
2022-10-05T06:00:24.000Z,10.09
2022-10-05T06:01:24.000Z,10.10
2022-10-05T06:02:24.000Z,10.15
2022-10-05T06:03:24.000Z,10.15
2022-10-05T06:04:24.000Z,10.21
2022-10-05T06:05:24.000Z,10.25
2022-10-05T06:06:24.000Z,10.30
2022-10-05T06:07:24.000Z,10.34
2022-10-05T06:08:24.000Z,10.39
2022-10-05T06:09:24.000Z,10.46
2022-10-05T06:10:24.000Z,10.51
2022-10-05T06:11:24.000Z,10.53
2022-10-05T06:12:24.000Z,10.53
2022-10-05T06:13:24.000Z,10.62
2022-10-05T06:14:24.000Z,10.62
2022-10-05T06:15:24.000Z,10.66
2022-10-05T06:16:24.000Z,10.70
2022-10-05T06:17:24.000Z,10.76
2022-10-05T06:18:24.000Z,10.78
2022-10-05T06:19:24.000Z,10.84
2022-10-05T06:20:24.000Z,10.86
2022-10-05T06:21:24.000Z,10.91
2022-10-05T06:22:24.000Z,10.98
2022-10-05T06:23:24.000Z,10.98
2022-10-05T06:24:24.000Z,11.10
2022-10-05T06:25:24.000Z,11.17
2022-10-05T06:26:24.000Z,11.17
2022-10-05T06:27:24.000Z,11.21
2022-10-05T06:28:24.000Z,11.25
2022-10-05T06:29:25.000Z,11.27
2022-10-05T06:30:25.000Z,11.32
2022-10-05T06:31:25.000Z,11.34
2022-10-05T06:32:25.000Z,11.38
2022-10-05T06:33:25.000Z,11.36
2022-10-05T06:34:25.000Z,11.41
2022-10-05T06:35:25.000Z,11.44
2022-10-05T06:36:25.000Z,11.43
2022-10-05T06:37:25.000Z,11.47
2022-10-05T06:38:25.000Z,11.50
2022-10-05T06:39:25.000Z,11.53
2022-10-05T06:40:25.000Z,11.56
2022-10-05T06:41:25.000Z,11.56
2022-10-05T06:42:25.000Z,11.57
2022-10-05T06:43:25.000Z,11.59
2022-10-05T06:44:25.000Z,11.61
2022-10-05T06:45:25.000Z,11.65
2022-10-05T06:46:25.000Z,11.64
2022-10-05T06:47:25.000Z,11.70
2022-10-05T06:48:25.000Z,11.71
2022-10-05T06:49:25.000Z,11.74
2022-10-05T06:50:25.000Z,11.77
2022-10-05T06:51:25.000Z,11.80
2022-10-05T06:52:25.000Z,11.82
2022-10-05T06:53:25.000Z,11.82
2022-10-05T06:54:25.000Z,11.82
2022-10-05T06:55:25.000Z,11.83
2022-10-05T06:56:25.000Z,11.85
2022-10-05T06:57:25.000Z,11.93
2022-10-05T06:58:25.000Z,11.94
2022-10-05T06:59:25.000Z,11.94
2022-10-05T07:00:25.000Z,11.97
2022-10-05T07:01:25.000Z,12.02
2022-10-05T07:02:25.000Z,12.05
2022-10-05T07:03:25.000Z,12.11
2022-10-05T07:04:25.000Z,12.08
2022-10-05T07:05:25.000Z,12.13
2022-10-05T07:06:25.000Z,12.15
2022-10-05T07:07:25.000Z,12.15
2022-10-05T07:08:25.000Z,12.21
2022-10-05T07:09:25.000Z,12.24
2022-10-05T07:10:25.000Z,12.23
2022-10-05T07:11:25.000Z,12.29
2022-10-05T07:12:25.000Z,12.30
2022-10-05T07:13:25.000Z,12.31
2022-10-05T07:14:25.000Z,12.34
2022-10-05T07:15:25.000Z,12.31
2022-10-05T07:16:25.000Z,12.34
2022-10-05T07:17:25.000Z,12.37
2022-10-05T07:18:25.000Z,12.37
2022-10-05T07:19:25.000Z,12.39
2022-10-05T07:20:25.000Z,12.39
2022-10-05T07:21:25.000Z,12.41
2022-10-05T07:22:25.000Z,12.44
2022-10-05T07:23:25.000Z,12.45
2022-10-05T07:24:25.000Z,12.46
2022-10-05T07:25:25.000Z,12.51
2022-10-05T07:26:26.000Z,12.52
2022-10-05T07:27:26.000Z,12.51
2022-10-05T07:28:26.000Z,12.56
2022-10-05T07:29:26.000Z,12.57
2022-10-05T07:30:26.000Z,12.59
2022-10-05T07:31:26.000Z,12.59
2022-10-05T07:32:26.000Z,12.67
2022-10-05T07:33:26.000Z,12.67
2022-10-05T07:34:26.000Z,12.66
2022-10-05T07:35:26.000Z,12.70
2022-10-05T07:36:26.000Z,12.69
2022-10-05T07:37:26.000Z,12.77
2022-10-05T07:38:26.000Z,12.78
2022-10-05T07:39:26.000Z,12.79
2022-10-05T07:40:26.000Z,12.85
2022-10-05T07:41:26.000Z,12.87
2022-10-05T07:42:26.000Z,12.89
2022-10-05T07:43:26.000Z,12.92
2022-10-05T07:44:26.000Z,12.97
2022-10-05T07:45:26.000Z,12.97
2022-10-05T07:46:26.000Z,13.03
2022-10-05T07:47:26.000Z,13.04
2022-10-05T07:48:26.000Z,13.06
2022-10-05T07:49:26.000Z,13.06
2022-10-05T07:50:26.000Z,13.06
2022-10-05T07:51:26.000Z,13.09
2022-10-05T07:52:26.000Z,13.12
2022-10-05T07:53:26.000Z,13.12
2022-10-05T07:54:26.000Z,13.17
2022-10-05T07:55:26.000Z,13.15
2022-10-05T07:56:26.000Z,13.17
2022-10-05T07:57:26.000Z,13.20
2022-10-05T07:58:26.000Z,13.22
2022-10-05T07:59:26.000Z,13.27
2022-10-05T08:00:26.000Z,13.29
2022-10-05T08:01:26.000Z,13.30
2022-10-05T08:02:26.000Z,13.36
2022-10-05T08:03:26.000Z,13.38
2022-10-05T08:04:26.000Z,13.37
2022-10-05T08:05:26.000Z,13.43
2022-10-05T08:06:26.000Z,13.44
2022-10-05T08:07:26.000Z,13.46
2022-10-05T08:08:26.000Z,13.49
2022-10-05T08:09:26.000Z,13.55
2022-10-05T08:10:26.000Z,13.51
2022-10-05T08:11:26.000Z,13.56
2022-10-05T08:12:26.000Z,13.59
2022-10-05T08:13:26.000Z,13.61
2022-10-05T08:14:26.000Z,13.63
2022-10-05T08:15:26.000Z,13.63
2022-10-05T08:16:26.000Z,13.67
2022-10-05T08:17:26.000Z,13.70
2022-10-05T08:18:26.000Z,13.71
2022-10-05T08:19:26.000Z,13.74
2022-10-05T08:20:26.000Z,13.76
2022-10-05T08:21:26.000Z,13.77
2022-10-05T08:22:26.000Z,13.77
2022-10-05T08:23:26.000Z,13.81
2022-10-05T08:24:26.000Z,13.83
2022-10-05T08:25:26.000Z,13.84
2022-10-05T08:26:26.000Z,13.91
2022-10-05T08:27:26.000Z,13.94
2022-10-05T08:28:26.000Z,13.94
2022-10-05T08:29:26.000Z,14.01
2022-10-05T08:30:26.000Z,13.99
2022-10-05T08:31:26.000Z,14.02
2022-10-05T08:32:26.000Z,14.06
2022-10-05T08:33:25.000Z,14.09
2022-10-05T08:34:25.000Z,14.16
2022-10-05T08:35:25.000Z,14.20
2022-10-05T08:36:25.000Z,14.25
2022-10-05T08:37:25.000Z,14.32
2022-10-05T08:38:25.000Z,14.38
2022-10-05T08:39:25.000Z,14.46
2022-10-05T08:40:25.000Z,14.53
2022-10-05T08:41:25.000Z,14.54
2022-10-05T08:42:25.000Z,14.57
2022-10-05T08:43:25.000Z,14.64
2022-10-05T08:44:25.000Z,14.65
2022-10-05T08:45:25.000Z,14.67
2022-10-05T08:46:25.000Z,14.68
2022-10-05T08:47:25.000Z,14.72
2022-10-05T08:48:25.000Z,14.74
2022-10-05T08:49:25.000Z,14.78
2022-10-05T08:50:25.000Z,14.75
2022-10-05T08:51:25.000Z,14.75
2022-10-05T08:52:25.000Z,14.80
2022-10-05T08:53:25.000Z,14.83
2022-10-05T08:54:25.000Z,14.86
2022-10-05T08:55:25.000Z,14.84
2022-10-05T08:56:25.000Z,14.86
2022-10-05T08:57:25.000Z,14.84
2022-10-05T08:58:25.000Z,14.86
2022-10-05T08:59:25.000Z,14.84
2022-10-05T09:00:25.000Z,14.84
2022-10-05T09:01:25.000Z,14.84
2022-10-05T09:02:25.000Z,14.87
2022-10-05T09:03:25.000Z,14.88
2022-10-05T09:04:25.000Z,14.90
2022-10-05T09:05:25.000Z,14.91
2022-10-05T09:06:25.000Z,14.87
2022-10-05T09:07:25.000Z,14.90
2022-10-05T09:08:25.000Z,14.91
2022-10-05T09:09:25.000Z,14.90
2022-10-05T09:10:25.000Z,14.93
2022-10-05T09:11:25.000Z,14.99
2022-10-05T09:12:25.000Z,14.99
2022-10-05T09:12:25.000Z,14.99
2022-10-05T09:13:25.000Z,14.98
2022-10-05T09:13:25.000Z,14.98
2022-10-05T09:14:25.000Z,14.99
2022-10-05T09:14:25.000Z,14.99
2022-10-05T09:15:25.000Z,15.01
2022-10-05T09:15:25.000Z,15.01
2022-10-05T09:16:25.000Z,15.05
2022-10-05T09:16:25.000Z,15.05
2022-10-05T09:17:25.000Z,15.05
2022-10-05T09:18:25.000Z,15.08
2022-10-05T09:19:25.000Z,15.13
2022-10-05T09:20:25.000Z,15.15
2022-10-05T09:21:25.000Z,15.17
2022-10-05T09:22:25.000Z,15.19
2022-10-05T09:23:25.000Z,15.26
2022-10-05T09:24:25.000Z,15.30
2022-10-05T09:25:25.000Z,15.30
2022-10-05T09:26:25.000Z,15.39
2022-10-05T09:27:25.000Z,15.41
2022-10-05T09:28:25.000Z,15.48
2022-10-05T09:29:25.000Z,15.52
2022-10-05T09:30:25.000Z,15.61
2022-10-05T09:31:25.000Z,15.61
2022-10-05T09:32:25.000Z,15.74
2022-10-05T09:33:25.000Z,15.74
2022-10-05T09:34:25.000Z,15.81
2022-10-05T09:35:25.000Z,15.85
2022-10-05T09:36:25.000Z,15.92
2022-10-05T09:37:25.000Z,15.92
2022-10-05T09:38:25.000Z,15.94
2022-10-05T09:39:25.000Z,16.00
2022-10-05T09:40:25.000Z,16.01
2022-10-05T09:41:25.000Z,16.07
2022-10-05T09:42:25.000Z,16.11
2022-10-05T09:43:25.000Z,16.12
2022-10-05T09:44:25.000Z,16.09
2022-10-05T09:45:25.000Z,16.11
2022-10-05T09:46:24.000Z,16.16
2022-10-05T09:47:24.000Z,16.18
2022-10-05T09:48:24.000Z,16.23
2022-10-05T09:49:24.000Z,16.30
2022-10-05T09:50:24.000Z,16.35
2022-10-05T09:51:24.000Z,16.40
2022-10-05T09:52:24.000Z,16.44
2022-10-05T09:53:24.000Z,16.49
2022-10-05T09:54:24.000Z,16.56
2022-10-05T09:55:24.000Z,16.56
2022-10-05T09:56:24.000Z,16.62
2022-10-05T09:57:24.000Z,16.63
2022-10-05T09:58:24.000Z,16.73
2022-10-05T09:59:24.000Z,16.74
2022-10-05T10:00:24.000Z,16.83
2022-10-05T10:01:24.000Z,16.85
2022-10-05T10:02:24.000Z,16.93
2022-10-05T10:03:24.000Z,17.06
2022-10-05T10:04:24.000Z,17.06
2022-10-05T10:05:24.000Z,17.13
2022-10-05T10:06:24.000Z,17.14
2022-10-05T10:07:24.000Z,17.18
2022-10-05T10:08:24.000Z,17.20
2022-10-05T10:09:24.000Z,17.22
2022-10-05T10:10:24.000Z,17.29
2022-10-05T10:11:24.000Z,17.30
2022-10-05T10:12:24.000Z,17.32
2022-10-05T10:13:24.000Z,17.33
2022-10-05T10:14:24.000Z,17.35
2022-10-05T10:15:24.000Z,17.40
2022-10-05T10:16:24.000Z,17.44
2022-10-05T10:17:24.000Z,17.48
2022-10-05T10:18:24.000Z,17.51
2022-10-05T10:19:24.000Z,17.53
2022-10-05T10:20:24.000Z,17.63
2022-10-05T10:21:24.000Z,17.62
2022-10-05T10:22:24.000Z,17.69
2022-10-05T10:23:23.000Z,17.76
2022-10-05T10:24:23.000Z,17.79
2022-10-05T10:25:23.000Z,17.85
2022-10-05T10:26:23.000Z,17.88
2022-10-05T10:27:23.000Z,17.89
2022-10-05T10:28:23.000Z,17.92
2022-10-05T10:29:23.000Z,17.92
2022-10-05T10:30:23.000Z,17.97
2022-10-05T10:31:23.000Z,18.02
2022-10-05T10:32:23.000Z,18.03
2022-10-05T10:33:23.000Z,18.03
2022-10-05T10:34:23.000Z,18.10
2022-10-05T10:35:23.000Z,18.12
2022-10-05T10:36:23.000Z,18.15
2022-10-05T10:37:23.000Z,18.15
2022-10-05T10:38:23.000Z,18.17
2022-10-05T10:39:23.000Z,18.17
2022-10-05T10:40:23.000Z,18.19
2022-10-05T10:41:23.000Z,18.18
2022-10-05T10:42:23.000Z,18.24
2022-10-05T10:43:23.000Z,18.25
2022-10-05T10:44:23.000Z,18.29
2022-10-05T10:45:23.000Z,18.36
2022-10-05T10:46:23.000Z,18.39
2022-10-05T10:47:23.000Z,18.43
2022-10-05T10:48:23.000Z,18.54
2022-10-05T10:49:23.000Z,18.64
2022-10-05T10:50:23.000Z,18.74
2022-10-05T10:51:23.000Z,18.83
2022-10-05T10:52:23.000Z,18.86
2022-10-05T10:53:22.000Z,18.92
2022-10-05T10:54:22.000Z,18.97
2022-10-05T10:55:22.000Z,18.99
2022-10-05T10:56:22.000Z,18.95
2022-10-05T10:57:22.000Z,18.94
2022-10-05T10:58:22.000Z,18.94
2022-10-05T10:59:22.000Z,18.90
2022-10-05T11:00:22.000Z,18.83
2022-10-05T11:01:22.000Z,18.76
2022-10-05T11:02:22.000Z,18.76
2022-10-05T11:03:22.000Z,18.72
2022-10-05T11:04:22.000Z,18.73
2022-10-05T11:05:22.000Z,18.73
2022-10-05T11:06:22.000Z,18.76
2022-10-05T11:07:22.000Z,18.82
2022-10-05T11:08:22.000Z,18.84
2022-10-05T11:09:22.000Z,18.90
2022-10-05T11:10:22.000Z,19.01
2022-10-05T11:11:22.000Z,19.10
2022-10-05T11:12:22.000Z,19.14
2022-10-05T11:13:22.000Z,19.18
2022-10-05T11:14:22.000Z,19.20
2022-10-05T11:15:22.000Z,19.24
2022-10-05T11:16:22.000Z,19.25
2022-10-05T11:17:21.000Z,19.24
2022-10-05T11:18:21.000Z,19.25
2022-10-05T11:19:21.000Z,19.31
2022-10-05T11:20:21.000Z,19.25
2022-10-05T11:21:21.000Z,19.13
2022-10-05T11:22:21.000Z,18.92
2022-10-05T11:23:21.000Z,18.94
2022-10-05T11:24:21.000Z,18.87
2022-10-05T11:25:21.000Z,18.84
2022-10-05T11:26:21.000Z,18.86
2022-10-05T11:27:21.000Z,18.74
2022-10-05T11:28:21.000Z,18.65
2022-10-05T11:29:21.000Z,18.59
2022-10-05T11:30:21.000Z,18.49
2022-10-05T11:31:21.000Z,18.43
2022-10-05T11:32:21.000Z,18.40
2022-10-05T11:33:21.000Z,18.37
2022-10-05T11:34:21.000Z,18.31
2022-10-05T11:35:21.000Z,18.29
2022-10-05T11:36:21.000Z,18.22
2022-10-05T11:37:20.000Z,18.22
2022-10-05T11:38:20.000Z,18.19
2022-10-05T11:39:20.000Z,18.17
2022-10-05T11:40:20.000Z,18.21
2022-10-05T11:41:20.000Z,18.18
2022-10-05T11:42:20.000Z,18.17
2022-10-05T11:43:20.000Z,18.17
2022-10-05T11:44:20.000Z,18.18
2022-10-05T11:45:20.000Z,18.19
2022-10-05T11:46:20.000Z,18.21
2022-10-05T11:47:20.000Z,18.22
2022-10-05T11:48:20.000Z,18.21
2022-10-05T11:49:20.000Z,18.24
2022-10-05T11:50:20.000Z,18.27
2022-10-05T11:51:20.000Z,18.31
2022-10-05T11:52:20.000Z,18.36
2022-10-05T11:53:20.000Z,18.37
2022-10-05T11:54:20.000Z,18.33
2022-10-05T11:55:20.000Z,18.29
2022-10-05T11:56:20.000Z,18.29
2022-10-05T11:57:20.000Z,18.29
2022-10-05T11:58:19.000Z,18.29
2022-10-05T11:59:19.000Z,18.36
2022-10-05T12:00:19.000Z,18.39
2022-10-05T12:01:19.000Z,18.39
2022-10-05T12:02:19.000Z,18.42
2022-10-05T12:03:19.000Z,18.42
2022-10-05T12:04:19.000Z,18.44
2022-10-05T12:05:19.000Z,18.50
2022-10-05T12:06:19.000Z,18.57
2022-10-05T12:07:19.000Z,18.58
2022-10-05T12:08:19.000Z,18.54
2022-10-05T12:09:19.000Z,18.57
2022-10-05T12:10:19.000Z,18.55
2022-10-05T12:11:19.000Z,18.55
2022-10-05T12:12:19.000Z,18.55
2022-10-05T12:13:19.000Z,18.57
2022-10-05T12:14:19.000Z,18.58
2022-10-05T12:15:19.000Z,18.62
2022-10-05T12:16:19.000Z,18.65
2022-10-05T12:17:19.000Z,18.59
2022-10-05T12:18:19.000Z,18.61
2022-10-05T12:19:18.000Z,18.57
2022-10-05T12:20:18.000Z,18.57
2022-10-05T12:21:18.000Z,18.50
2022-10-05T12:22:18.000Z,18.54
2022-10-05T12:23:18.000Z,18.55
2022-10-05T12:24:18.000Z,18.52
2022-10-05T12:25:18.000Z,18.59
2022-10-05T12:26:18.000Z,18.62
2022-10-05T12:27:18.000Z,18.65
2022-10-05T12:28:18.000Z,18.68
2022-10-05T12:29:18.000Z,18.74
2022-10-05T12:30:18.000Z,18.80
2022-10-05T12:31:18.000Z,18.82
2022-10-05T12:32:18.000Z,18.87
2022-10-05T12:33:18.000Z,18.86
2022-10-05T12:34:18.000Z,18.94
2022-10-05T12:35:18.000Z,18.92
2022-10-05T12:36:18.000Z,18.98
2022-10-05T12:37:18.000Z,18.97
2022-10-05T12:38:18.000Z,18.98
2022-10-05T12:39:18.000Z,19.01
2022-10-05T12:40:18.000Z,19.06
2022-10-05T12:41:18.000Z,19.08
2022-10-05T12:42:17.000Z,19.10
2022-10-05T12:43:17.000Z,19.13
2022-10-05T12:44:17.000Z,19.13
2022-10-05T12:45:17.000Z,19.14
2022-10-05T12:46:17.000Z,19.14
2022-10-05T12:47:17.000Z,19.15
2022-10-05T12:48:17.000Z,19.20
2022-10-05T12:49:17.000Z,19.20
2022-10-05T12:50:17.000Z,19.24
2022-10-05T12:51:17.000Z,19.24
2022-10-05T12:52:17.000Z,19.24
2022-10-05T12:53:17.000Z,19.24
2022-10-05T12:54:17.000Z,19.23